Time;durP1;ratioP1;P1;durP2;ratioP2;P2;SDS_P1;SDS_P2;PMS_P1;PMS_P2;Temp;Humidity;BMP_temperature;BMP_pressure;BME280_temperature;BME280_humidity;BME280_pressure;Samples;Min_cycle;Max_cycle;Signal;HPM_P1;HPM_P2
2024/04/08 00:00:34;;;;;;;8.73;1.92;;;13.50;99.90;;;;;;5040191;28;20068;-85
2024/04/08 00:03:01;;;;;;;11.63;2.05;;;13.50;99.90;;;;;;5039859;28;20049;-85
2024/04/08 00:05:28;;;;;;;4.63;1.38;;;13.50;99.90;;;;;;5033888;28;20486;-85
2024/04/08 00:07:55;;;;;;;5.75;1.15;;;13.40;99.90;;;;;;5044843;28;20057;-85
2024/04/08 00:10:21;;;;;;;8.15;1.75;;;13.50;99.90;;;;;;5039141;28;20041;-85
2024/04/08 00:12:48;;;;;;;11.32;1.75;;;13.40;99.90;;;;;;5043269;28;20052;-84
2024/04/08 00:15:15;;;;;;;15.43;1.70;;;13.40;99.90;;;;;;5042181;28;20053;-85
2024/04/08 00:17:43;;;;;;;12.27;1.70;;;13.40;99.90;;;;;;5037061;28;20115;-84
2024/04/08 00:20:13;;;;;;;6.55;1.45;;;13.40;99.90;;;;;;5057336;28;20072;-85
2024/04/08 00:22:40;;;;;;;6.32;1.73;;;13.40;99.90;;;;;;5048224;28;20030;-85
2024/04/08 00:25:08;;;;;;;7.30;1.70;;;13.40;99.90;;;;;;5037190;28;20033;-84
2024/04/08 00:27:35;;;;;;;6.65;1.67;;;13.40;99.90;;;;;;5046930;28;20038;-85
2024/04/08 00:30:04;;;;;;;8.75;1.40;;;13.40;99.90;;;;;;5046781;28;20622;-85
2024/04/08 00:32:31;;;;;;;9.48;1.70;;;13.30;99.90;;;;;;5034410;28;20038;-85
2024/04/08 00:34:58;;;;;;;10.85;1.85;;;13.30;99.90;;;;;;5043839;28;20029;-85
2024/04/08 00:37:24;;;;;;;7.45;1.70;;;13.30;99.90;;;;;;5039321;28;20042;-85
2024/04/08 00:39:51;;;;;;;7.70;1.60;;;13.30;99.90;;;;;;5030654;28;20034;-85
2024/04/08 00:42:18;;;;;;;12.98;1.90;;;13.30;99.90;;;;;;5042532;28;20049;-85
2024/04/08 00:44:44;;;;;;;7.15;1.75;;;13.30;99.90;;;;;;5059396;28;20041;-85
2024/04/08 00:47:14;;;;;;;6.38;1.65;;;13.30;99.90;;;;;;5048999;28;20084;-85
2024/04/08 00:49:42;;;;;;;6.53;1.48;;;13.30;99.90;;;;;;5047077;28;20152;-85
2024/04/08 00:52:12;;;;;;;10.10;1.92;;;13.30;99.90;;;;;;5044523;28;20037;-85
2024/04/08 00:54:40;;;;;;;10.63;1.70;;;13.20;99.90;;;;;;5050180;28;20050;-85
2024/04/08 00:57:09;;;;;;;11.82;1.95;;;13.20;99.90;;;;;;5041358;28;20498;-85
2024/04/08 00:59:36;;;;;;;13.25;2.35;;;13.20;99.90;;;;;;5041974;28;20044;-85
2024/04/08 01:02:04;;;;;;;9.60;1.90;;;13.10;99.90;;;;;;5039239;28;20487;-84
2024/04/08 01:04:32;;;;;;;9.18;1.85;;;13.20;99.90;;;;;;5040885;28;20057;-85
2024/04/08 01:06:59;;;;;;;11.68;1.70;;;13.20;99.90;;;;;;5042196;28;20129;-85
2024/04/08 01:09:27;;;;;;;6.50;1.77;;;13.10;99.90;;;;;;5033633;28;20054;-85
2024/04/08 01:11:56;;;;;;;9.35;1.92;;;13.10;99.90;;;;;;5041429;28;20384;-85
2024/04/08 01:14:23;;;;;;;9.07;2.00;;;13.10;99.90;;;;;;5036836;28;20046;-85
2024/04/08 01:16:50;;;;;;;7.68;1.73;;;13.20;99.90;;;;;;5048529;28;20511;-85
2024/04/08 01:19:23;;;;;;;6.63;1.67;;;13.10;99.90;;;;;;5042025;28;20068;-85
2024/04/08 01:21:50;;;;;;;5.60;1.63;;;13.10;99.90;;;;;;5039124;28;20088;-85
2024/04/08 01:24:17;;;;;;;6.28;1.92;;;13.10;99.90;;;;;;5040857;28;20034;-85
2024/04/08 01:26:43;;;;;;;9.60;1.92;;;13.00;99.90;;;;;;5057745;28;20577;-85
2024/04/08 01:29:10;;;;;;;7.53;1.98;;;13.10;99.90;;;;;;5047078;28;20041;-85
2024/04/08 01:31:37;;;;;;;8.90;1.90;;;12.90;99.90;;;;;;5033348;28;20058;-85
2024/04/08 01:34:04;;;;;;;5.47;1.60;;;12.90;99.90;;;;;;5040763;28;20079;-85
2024/04/08 01:36:30;;;;;;;7.13;1.95;;;12.90;99.90;;;;;;5039535;28;20034;-84
2024/04/08 01:38:57;;;;;;;11.48;1.73;;;12.80;99.90;;;;;;5053849;28;20087;-85
2024/04/08 01:41:23;;;;;;;12.45;1.70;;;13.00;99.90;;;;;;5045098;28;20099;-85
2024/04/08 01:43:50;;;;;;;8.57;1.88;;;12.90;99.90;;;;;;5045018;28;20072;-85
2024/04/08 01:46:17;;;;;;;5.88;2.00;;;12.80;99.90;;;;;;5041638;28;20037;-85
2024/04/08 01:48:44;;;;;;;8.95;2.13;;;12.80;99.90;;;;;;5038548;28;20118;-85
2024/04/08 01:51:10;;;;;;;10.00;2.00;;;12.80;99.90;;;;;;5035633;28;20068;-85
2024/04/08 01:53:37;;;;;;;7.55;1.88;;;12.80;99.90;;;;;;5041219;28;20092;-85
2024/04/08 01:56:04;;;;;;;7.72;1.95;;;12.80;99.90;;;;;;5052591;28;20041;-85
2024/04/08 01:58:31;;;;;;;7.45;2.33;;;12.80;99.90;;;;;;5036055;28;20037;-85
2024/04/08 02:00:57;;;;;;;8.73;2.10;;;12.80;99.90;;;;;;5042799;28;20033;-85
2024/04/08 02:03:24;;;;;;;9.10;2.00;;;12.80;99.90;;;;;;5038619;28;20476;-85
2024/04/08 02:05:50;;;;;;;4.82;2.00;;;12.80;99.90;;;;;;5032418;28;20184;-84
2024/04/08 02:08:17;;;;;;;7.55;2.10;;;12.90;99.90;;;;;;5056324;28;20053;-84
2024/04/08 02:10:44;;;;;;;5.22;2.05;;;12.90;99.90;;;;;;5056855;28;20124;-85
2024/04/08 02:13:10;;;;;;;5.43;1.85;;;12.90;99.90;;;;;;5061343;28;20037;-85
2024/04/08 02:15:37;;;;;;;6.82;1.98;;;12.90;99.90;;;;;;5045658;28;20517;-85
2024/04/08 02:18:06;;;;;;;6.82;2.40;;;12.80;99.90;;;;;;5033302;28;20721;-85
2024/04/08 02:20:39;;;;;;;5.82;2.15;;;12.80;99.90;;;;;;5052347;28;20030;-85
2024/04/08 02:23:06;;;;;;;6.85;2.38;;;12.90;99.90;;;;;;5033639;28;20164;-85
2024/04/08 02:25:42;;;;;;;6.68;2.15;;;12.90;99.90;;;;;;5033221;28;20117;-84
2024/04/08 02:28:09;;;;;;;7.53;2.20;;;12.90;99.90;;;;;;5044132;28;20045;-85
2024/04/08 02:30:36;;;;;;;5.72;2.45;;;12.90;99.90;;;;;;5051844;28;20038;-85
2024/04/08 02:33:06;;;;;;;7.13;2.08;;;12.90;99.90;;;;;;5039811;28;20053;-85
2024/04/08 02:35:37;;;;;;;6.18;2.17;;;12.80;99.90;;;;;;5045604;28;20038;-85
2024/04/08 02:38:04;;;;;;;8.23;2.15;;;12.90;99.90;;;;;;5032028;28;20464;-85
2024/04/08 02:40:34;;;;;;;4.40;2.10;;;12.80;99.90;;;;;;5051843;28;20037;-84
2024/04/08 02:43:03;;;;;;;8.25;2.35;;;12.90;99.90;;;;;;5034937;28;20083;-85
2024/04/08 02:45:30;;;;;;;5.30;2.20;;;12.90;99.90;;;;;;5052620;28;20435;-85
2024/04/08 02:47:57;;;;;;;8.20;2.08;;;12.90;99.90;;;;;;5034687;28;20139;-84
2024/04/08 02:50:25;;;;;;;7.25;2.20;;;12.80;99.90;;;;;;5038359;28;20439;-85
2024/04/08 02:52:51;;;;;;;6.03;2.28;;;12.90;99.90;;;;;;5031964;28;20046;-85
2024/04/08 02:55:18;;;;;;;6.13;2.20;;;12.80;99.90;;;;;;5039969;28;20398;-84
2024/04/08 02:57:45;;;;;;;7.28;2.10;;;12.80;99.90;;;;;;5047230;28;20041;-85
2024/04/08 03:00:12;;;;;;;7.50;2.58;;;12.80;99.90;;;;;;5032150;28;20049;-85
2024/04/08 03:02:39;;;;;;;6.85;2.30;;;12.80;99.90;;;;;;5032321;28;20053;-84
2024/04/08 03:05:06;;;;;;;5.10;2.20;;;12.80;99.90;;;;;;5044833;28;20034;-84
2024/04/08 03:07:32;;;;;;;6.75;1.95;;;12.80;99.90;;;;;;5031792;28;20100;-84
2024/04/08 03:09:59;;;;;;;5.28;2.10;;;12.80;99.90;;;;;;5042524;28;20042;-85
2024/04/08 03:12:26;;;;;;;6.78;2.03;;;12.80;99.90;;;;;;5033525;28;20033;-85
2024/04/08 03:14:52;;;;;;;7.30;2.17;;;12.80;99.90;;;;;;5042647;28;20036;-84
2024/04/08 03:17:19;;;;;;;6.30;2.22;;;12.80;99.90;;;;;;5031757;28;20501;-85
2024/04/08 03:19:45;;;;;;;7.40;2.08;;;12.80;99.90;;;;;;5040642;28;20080;-84
2024/04/08 03:22:12;;;;;;;6.38;2.40;;;12.80;99.90;;;;;;5038606;28;20084;-85
2024/04/08 03:24:39;;;;;;;4.18;2.00;;;12.90;99.90;;;;;;5037043;28;20041;-85
2024/04/08 03:27:05;;;;;;;9.10;2.35;;;12.90;99.90;;;;;;5034343;28;20045;-85
2024/04/08 03:29:32;;;;;;;9.05;2.10;;;12.80;99.90;;;;;;5044306;28;20069;-85
2024/04/08 03:31:58;;;;;;;8.10;2.40;;;12.80;99.90;;;;;;5064056;28;20124;-85
2024/04/08 03:34:25;;;;;;;6.35;2.05;;;12.80;99.90;;;;;;5038284;28;20132;-85
2024/04/08 03:36:52;;;;;;;5.57;2.45;;;12.80;99.90;;;;;;5044883;28;20423;-85
2024/04/08 03:40:39;;;;;;;5.97;2.20;;;12.80;99.90;;;;;;5472551;26;20456;-83
2024/04/08 03:43:08;;;;;;;5.55;2.40;;;12.70;99.90;;;;;;5435808;26;20043;-84
2024/04/08 03:45:38;;;;;;;8.48;2.47;;;12.60;99.90;;;;;;5418423;26;20037;-84
2024/04/08 03:48:06;;;;;;;7.28;2.25;;;12.60;99.90;;;;;;5435108;26;20028;-83
2024/04/08 03:50:34;;;;;;;8.90;2.33;;;12.60;99.90;;;;;;5435155;26;20024;-83
2024/04/08 03:53:02;;;;;;;6.35;2.38;;;12.50;99.90;;;;;;5434989;26;20028;-83
2024/04/08 03:55:30;;;;;;;8.52;2.85;;;12.50;99.90;;;;;;5436224;26;20497;-83
2024/04/08 03:57:58;;;;;;;7.55;2.67;;;12.50;99.90;;;;;;5436067;26;20032;-83
2024/04/08 04:00:26;;;;;;;8.13;2.53;;;12.50;99.90;;;;;;5434764;26;20036;-83
2024/04/08 04:02:54;;;;;;;7.40;2.50;;;12.50;99.90;;;;;;5434627;26;20036;-83
2024/04/08 04:05:22;;;;;;;7.28;2.30;;;12.50;99.90;;;;;;5424535;26;20039;-84
2024/04/08 04:07:50;;;;;;;7.13;2.50;;;12.50;99.90;;;;;;5444969;26;20017;-84
2024/04/08 04:10:18;;;;;;;7.95;2.80;;;12.50;99.90;;;;;;5417144;26;20037;-83
2024/04/08 04:12:46;;;;;;;5.45;2.70;;;12.50;99.90;;;;;;5432813;26;20040;-83
2024/04/08 04:15:14;;;;;;;10.20;3.20;;;12.60;99.90;;;;;;5456150;26;20393;-83
2024/04/08 04:17:45;;;;;;;5.95;2.55;;;12.60;99.90;;;;;;5435791;26;20028;-84
2024/04/08 04:20:16;;;;;;;5.28;2.60;;;12.60;99.90;;;;;;5431570;26;20033;-83
2024/04/08 04:22:44;;;;;;;8.98;2.72;;;12.60;99.90;;;;;;5412684;26;20638;-83
2024/04/08 04:25:12;;;;;;;7.22;3.42;;;12.60;99.90;;;;;;5381999;26;20405;-83
2024/04/08 04:27:40;;;;;;;9.60;3.13;;;12.60;99.90;;;;;;5434262;26;20868;-83
2024/04/08 04:30:08;;;;;;;7.60;2.58;;;12.60;99.90;;;;;;5410571;26;20029;-83
2024/04/08 04:32:36;;;;;;;7.22;3.05;;;12.60;99.90;;;;;;5419304;26;20039;-83
2024/04/08 04:35:04;;;;;;;6.32;3.00;;;12.60;99.90;;;;;;5407515;26;20032;-83
2024/04/08 04:37:33;;;;;;;8.73;3.10;;;12.70;99.90;;;;;;5451034;26;20042;-84
2024/04/08 04:40:01;;;;;;;8.35;3.35;;;12.60;99.90;;;;;;5424458;26;20024;-83
2024/04/08 04:42:28;;;;;;;7.40;3.10;;;12.60;99.90;;;;;;5429146;26;20049;-83
2024/04/08 04:44:57;;;;;;;10.85;3.47;;;12.60;99.90;;;;;;5428071;26;20036;-84
2024/04/08 04:47:25;;;;;;;10.13;3.22;;;12.60;99.90;;;;;;5454012;26;20027;-84
2024/04/08 04:49:53;;;;;;;6.90;3.17;;;12.60;99.90;;;;;;5404894;26;20024;-83
2024/04/08 04:52:21;;;;;;;7.97;3.50;;;12.60;99.90;;;;;;5424945;26;20028;-83
2024/04/08 04:54:48;;;;;;;7.97;3.40;;;12.70;99.90;;;;;;5443345;26;20039;-83
2024/04/08 04:57:16;;;;;;;7.40;3.40;;;12.60;99.90;;;;;;5443506;26;20024;-84
2024/04/08 04:59:45;;;;;;;8.82;3.30;;;12.70;99.90;;;;;;5392308;26;20029;-83
2024/04/08 05:02:13;;;;;;;7.80;3.35;;;12.60;99.90;;;;;;5409498;26;20032;-83
2024/04/08 05:04:42;;;;;;;9.55;3.13;;;12.70;99.90;;;;;;5418745;26;20525;-83
2024/04/08 05:07:10;;;;;;;11.38;3.70;;;12.70;99.90;;;;;;5409618;26;20039;-83
2024/04/08 05:09:38;;;;;;;9.25;3.75;;;12.70;99.90;;;;;;5417942;26;20028;-83
2024/04/08 05:12:07;;;;;;;6.60;2.90;;;12.70;99.90;;;;;;5418320;26;20024;-83
2024/04/08 05:14:35;;;;;;;7.28;3.63;;;12.70;99.90;;;;;;5427012;26;20027;-83
2024/04/08 05:17:02;;;;;;;7.30;3.60;;;12.70;99.90;;;;;;5417082;26;20032;-83
2024/04/08 05:19:30;;;;;;;7.45;3.38;;;12.70;99.90;;;;;;5397458;26;20053;-84
2024/04/08 05:21:58;;;;;;;6.88;3.42;;;12.80;99.90;;;;;;5388035;26;20029;-84
2024/04/08 05:24:26;;;;;;;9.27;3.45;;;12.70;99.90;;;;;;5414630;26;20028;-83
2024/04/08 05:26:54;;;;;;;7.05;3.03;;;12.80;99.90;;;;;;5418217;26;20037;-83
2024/04/08 05:29:24;;;;;;;6.68;3.35;;;12.70;99.90;;;;;;5399561;26;20036;-84
2024/04/08 05:31:52;;;;;;;7.35;3.58;;;12.80;99.90;;;;;;5410412;26;20038;-84
2024/04/08 05:34:20;;;;;;;8.75;3.42;;;12.80;99.90;;;;;;5410954;26;20032;-84
2024/04/08 05:36:48;;;;;;;7.57;3.30;;;12.80;99.90;;;;;;5411438;26;20024;-84
2024/04/08 05:39:16;;;;;;;8.25;3.60;;;12.80;99.90;;;;;;5412246;26;20032;-84
2024/04/08 05:41:44;;;;;;;6.07;3.17;;;12.90;99.90;;;;;;5416438;26;20028;-84
2024/04/08 05:44:12;;;;;;;11.23;3.47;;;12.80;99.90;;;;;;5394838;26;20029;-83
2024/04/08 05:46:41;;;;;;;8.93;3.70;;;12.80;99.90;;;;;;5414167;26;20032;-84
2024/04/08 05:49:09;;;;;;;6.97;3.20;;;12.80;99.90;;;;;;5429960;26;20040;-83
2024/04/08 05:51:37;;;;;;;8.77;3.20;;;12.80;99.90;;;;;;5406692;26;20024;-83
2024/04/08 05:54:05;;;;;;;6.05;3.08;;;12.90;99.90;;;;;;5383245;26;20024;-84
2024/04/08 05:56:33;;;;;;;6.65;3.10;;;12.90;99.90;;;;;;5402657;26;20033;-83
2024/04/08 05:59:01;;;;;;;7.28;3.40;;;12.90;99.90;;;;;;5410711;26;20029;-83
2024/04/08 06:01:29;;;;;;;5.43;3.33;;;12.90;99.90;;;;;;5412017;26;20028;-83
2024/04/08 06:03:57;;;;;;;11.07;3.70;;;12.80;99.90;;;;;;5419029;26;20380;-84
2024/04/08 06:06:25;;;;;;;9.68;3.35;;;13.00;99.90;;;;;;5396112;26;20032;-84
2024/04/08 06:09:04;;;;;;;10.82;3.28;;;13.00;99.90;;;;;;5403757;26;20041;-85
2024/04/08 06:11:32;;;;;;;5.50;2.95;;;13.10;99.90;;;;;;5419693;26;20037;-85
2024/04/08 06:14:00;;;;;;;8.23;3.15;;;13.10;99.90;;;;;;5413645;26;20032;-84
2024/04/08 06:16:28;;;;;;;8.43;3.38;;;13.20;99.90;;;;;;5398124;26;20490;-85
2024/04/08 06:18:55;;;;;;;5.80;2.83;;;13.10;99.90;;;;;;5406053;26;20032;-85
2024/04/08 06:21:23;;;;;;;7.70;2.97;;;13.20;99.90;;;;;;5430667;26;20400;-85
2024/04/08 06:23:51;;;;;;;5.15;2.65;;;13.20;99.90;;;;;;5420040;26;20036;-85
2024/04/08 06:26:19;;;;;;;5.63;2.70;;;13.20;99.90;;;;;;5396419;26;20032;-85
2024/04/08 06:28:49;;;;;;;6.80;2.90;;;13.20;99.90;;;;;;5397845;26;20365;-85
2024/04/08 06:31:17;;;;;;;10.10;3.30;;;13.20;99.90;;;;;;5405901;26;20033;-85
2024/04/08 06:33:45;;;;;;;6.88;2.72;;;13.20;99.90;;;;;;5400816;26;20036;-85
2024/04/08 06:36:13;;;;;;;7.20;2.92;;;13.20;99.90;;;;;;5406036;26;20035;-85
2024/04/08 06:38:41;;;;;;;8.07;3.00;;;13.20;99.90;;;;;;5409370;26;20026;-85
2024/04/08 06:41:09;;;;;;;9.15;3.33;;;13.20;99.90;;;;;;5444450;26;20031;-85
2024/04/08 06:43:38;;;;;;;6.35;2.90;;;13.30;99.90;;;;;;5417720;26;20032;-85
2024/04/08 06:46:06;;;;;;;8.75;3.08;;;13.30;99.90;;;;;;5434466;26;20036;-86
2024/04/08 06:48:36;;;;;;;7.50;3.15;;;13.30;99.90;;;;;;5417110;26;20044;-86
2024/04/08 06:51:04;;;;;;;8.35;2.78;;;13.30;99.90;;;;;;5434267;26;20035;-85
2024/04/08 06:53:32;;;;;;;6.68;2.90;;;13.20;99.90;;;;;;5420473;26;20030;-85
2024/04/08 06:56:00;;;;;;;5.85;3.10;;;13.30;99.90;;;;;;5415123;26;20031;-85
2024/04/08 06:58:28;;;;;;;8.90;3.15;;;13.30;99.90;;;;;;5387885;26;20044;-85
2024/04/08 07:00:56;;;;;;;5.78;2.92;;;13.30;99.90;;;;;;5389322;26;20110;-85
2024/04/08 07:03:24;;;;;;;8.65;2.90;;;13.30;99.90;;;;;;5417321;26;20027;-85
2024/04/08 07:05:52;;;;;;;9.43;3.15;;;13.30;99.90;;;;;;5393891;26;20025;-85
2024/04/08 07:08:19;;;;;;;6.93;2.67;;;13.30;99.90;;;;;;5416828;26;20028;-85
2024/04/08 07:10:47;;;;;;;8.48;2.97;;;13.30;99.90;;;;;;5440329;26;20036;-84
2024/04/08 07:13:17;;;;;;;7.60;3.38;;;13.30;99.90;;;;;;5418577;26;20386;-85
2024/04/08 07:16:03;;;;;;;7.35;3.25;;;13.30;99.90;;;;;;5418538;26;20037;-85
2024/04/08 07:18:31;;;;;;;7.75;3.30;;;13.30;99.90;;;;;;5418663;26;20028;-84
2024/04/08 07:20:59;;;;;;;8.25;2.85;;;13.20;99.90;;;;;;5410319;26;20025;-85
2024/04/08 07:23:27;;;;;;;8.40;3.70;;;13.20;99.90;;;;;;5404436;26;20033;-84
2024/04/08 07:25:55;;;;;;;8.13;2.97;;;13.30;99.90;;;;;;5399598;26;20028;-85
2024/04/08 07:28:23;;;;;;;8.85;3.28;;;13.20;99.90;;;;;;5393567;26;20033;-85
2024/04/08 07:30:50;;;;;;;7.47;3.22;;;13.20;99.90;;;;;;5418485;26;20028;-84
2024/04/08 07:33:21;;;;;;;9.30;3.55;;;13.30;99.90;;;;;;5417047;26;20392;-84
2024/04/08 07:35:49;;;;;;;8.18;3.80;;;13.30;99.90;;;;;;5411700;26;21306;-84
2024/04/08 07:38:17;;;;;;;8.27;3.45;;;13.30;99.90;;;;;;5416534;26;20485;-85
2024/04/08 07:40:45;;;;;;;6.72;3.22;;;13.30;99.90;;;;;;5399220;26;20386;-85
2024/04/08 07:43:13;;;;;;;12.10;3.45;;;13.30;99.90;;;;;;5410103;26;20032;-85
2024/04/08 07:45:41;;;;;;;6.75;3.67;;;13.30;99.90;;;;;;5416613;26;20037;-84
2024/04/08 07:48:09;;;;;;;8.20;3.80;;;13.40;99.90;;;;;;5416800;26;20032;-84
2024/04/08 07:50:38;;;;;;;11.57;4.28;;;13.40;99.90;;;;;;5416587;26;20032;-84
2024/04/08 07:53:06;;;;;;;9.20;4.28;;;13.40;99.90;;;;;;5427578;26;20037;-85
2024/04/08 07:55:33;;;;;;;7.43;4.30;;;13.30;99.90;;;;;;5415728;26;20028;-84
2024/04/08 07:58:01;;;;;;;9.68;4.25;;;13.30;99.90;;;;;;5416138;26;20387;-84
2024/04/08 08:00:29;;;;;;;10.38;4.30;;;13.40;99.90;;;;;;5394706;26;20071;-84
2024/04/08 08:03:01;;;;;;;9.93;4.28;;;13.50;99.90;;;;;;5439973;26;20032;-84
2024/04/08 08:05:29;;;;;;;10.95;4.45;;;13.60;99.90;;;;;;5415949;26;20040;-84
2024/04/08 08:07:59;;;;;;;8.18;3.67;;;13.70;99.90;;;;;;5413168;26;20033;-84
2024/04/08 08:10:28;;;;;;;8.57;4.32;;;13.90;99.90;;;;;;5388907;26;20040;-85
2024/04/08 08:12:55;;;;;;;7.78;4.28;;;13.80;99.90;;;;;;5409371;26;20025;-84
2024/04/08 08:15:24;;;;;;;12.07;4.80;;;14.10;99.90;;;;;;5403110;26;20380;-85
2024/04/08 08:17:54;;;;;;;9.23;3.88;;;14.20;99.90;;;;;;5430172;26;20037;-84
2024/04/08 08:20:22;;;;;;;8.15;4.00;;;14.30;99.90;;;;;;5404700;26;20032;-84
2024/04/08 08:22:56;;;;;;;9.98;4.07;;;14.30;99.90;;;;;;5425416;26;20029;-84
2024/04/08 08:25:24;;;;;;;8.40;3.95;;;14.50;99.90;;;;;;5407616;26;20037;-84
2024/04/08 08:27:52;;;;;;;11.23;3.97;;;14.50;99.90;;;;;;5416790;26;20033;-84
2024/04/08 08:30:20;;;;;;;6.90;4.07;;;14.60;99.90;;;;;;5389056;26;20370;-84
2024/04/08 08:32:50;;;;;;;8.90;4.60;;;14.60;99.90;;;;;;5401511;26;20029;-84
2024/04/08 08:35:18;;;;;;;8.27;3.88;;;14.60;99.90;;;;;;5414594;26;20032;-84
2024/04/08 08:37:45;;;;;;;7.38;3.67;;;14.60;99.90;;;;;;5400556;26;20051;-84
2024/04/08 08:40:13;;;;;;;5.40;3.58;;;14.70;99.90;;;;;;5384101;26;20109;-84
2024/04/08 08:42:43;;;;;;;7.15;3.85;;;14.70;99.90;;;;;;5404798;26;20037;-84
2024/04/08 08:45:13;;;;;;;6.47;3.42;;;14.80;99.90;;;;;;5406257;26;20041;-85
2024/04/08 08:47:40;;;;;;;7.45;3.85;;;14.80;99.90;;;;;;5411858;26;20024;-84
2024/04/08 08:50:10;;;;;;;8.93;3.25;;;14.90;99.90;;;;;;5431395;26;20043;-84
2024/04/08 08:52:39;;;;;;;5.97;3.20;;;14.80;99.90;;;;;;5445048;26;20039;-84
2024/04/08 08:55:08;;;;;;;8.63;3.28;;;14.90;99.90;;;;;;5451826;26;20484;-85
2024/04/08 08:57:36;;;;;;;8.27;3.38;;;14.90;99.90;;;;;;5403813;26;20041;-84
2024/04/08 09:00:06;;;;;;;7.22;2.97;;;14.90;99.90;;;;;;5399026;26;20028;-85
2024/04/08 09:02:36;;;;;;;6.47;2.80;;;15.00;99.90;;;;;;5401017;26;20041;-84
2024/04/08 09:05:04;;;;;;;7.10;2.80;;;15.00;99.90;;;;;;5402250;26;20047;-84
2024/04/08 09:07:32;;;;;;;5.28;2.88;;;15.00;99.90;;;;;;5416218;26;20024;-84
2024/04/08 09:10:00;;;;;;;8.38;3.00;;;15.00;99.90;;;;;;5406258;26;20041;-84
2024/04/08 09:12:28;;;;;;;7.63;3.03;;;15.00;99.90;;;;;;5392269;26;20033;-84
2024/04/08 09:14:56;;;;;;;5.88;2.80;;;15.10;99.90;;;;;;5455413;26;20040;-84
2024/04/08 09:17:23;;;;;;;7.13;3.15;;;15.00;99.90;;;;;;5426262;26;20033;-84
2024/04/08 09:19:51;;;;;;;5.60;2.90;;;15.10;99.90;;;;;;5419685;26;20034;-84
2024/04/08 09:22:19;;;;;;;5.15;2.67;;;15.20;99.90;;;;;;5404605;26;20040;-84
2024/04/08 09:24:47;;;;;;;6.63;2.78;;;15.30;99.90;;;;;;5418249;26;20024;-84
2024/04/08 09:27:15;;;;;;;5.55;2.88;;;15.40;99.90;;;;;;5428170;26;20023;-84
2024/04/08 09:29:43;;;;;;;6.40;2.90;;;15.40;99.90;;;;;;5422996;26;20025;-84
2024/04/08 09:32:11;;;;;;;6.75;3.28;;;15.60;99.90;;;;;;5416077;26;20040;-84
2024/04/08 09:34:41;;;;;;;6.10;2.78;;;15.70;99.90;;;;;;5410806;26;20032;-84
2024/04/08 09:37:12;;;;;;;4.95;2.42;;;15.80;99.90;;;;;;5417458;26;20027;-85
2024/04/08 09:39:41;;;;;;;5.88;2.95;;;15.80;99.90;;;;;;5441738;26;20035;-84
2024/04/08 09:42:11;;;;;;;5.22;2.50;;;15.80;99.90;;;;;;5418014;26;20024;-84
2024/04/08 09:44:43;;;;;;;4.85;2.20;;;15.90;99.90;;;;;;5410868;26;20030;-84
2024/04/08 09:47:12;;;;;;;6.20;2.08;;;16.00;99.90;;;;;;5371039;26;20033;-85
2024/04/08 09:49:41;;;;;;;5.13;2.40;;;16.10;99.90;;;;;;5400545;26;20892;-85
2024/04/08 09:52:12;;;;;;;6.55;2.33;;;16.20;99.90;;;;;;5415299;26;20024;-84
2024/04/08 09:54:40;;;;;;;4.78;1.80;;;16.20;99.90;;;;;;5403778;26;20033;-84
2024/04/08 09:57:10;;;;;;;5.32;2.25;;;16.20;99.90;;;;;;5392068;26;20024;-84
2024/04/08 09:59:40;;;;;;;5.90;2.30;;;16.20;99.90;;;;;;5412568;26;20036;-84
2024/04/08 10:02:22;;;;;;;5.20;2.05;;;16.30;99.90;;;;;;5398832;26;20036;-84
2024/04/08 10:04:56;;;;;;;4.57;2.00;;;16.40;99.90;;;;;;5403898;26;20039;-85
2024/04/08 10:07:25;;;;;;;7.63;2.42;;;16.50;99.90;;;;;;5413356;26;20033;-84
2024/04/08 10:09:53;;;;;;;4.88;2.03;;;16.70;99.90;;;;;;5414020;26;20031;-84
2024/04/08 10:12:32;;;;;;;6.90;2.25;;;16.70;99.90;;;;;;5391370;26;20382;-84
2024/04/08 10:15:13;;;;;;;7.45;2.83;;;17.00;99.90;;;;;;5431754;26;20031;-84
2024/04/08 10:17:46;;;;;;;4.68;1.77;;;16.90;99.90;;;;;;5403098;26;20024;-84
2024/04/08 10:20:17;;;;;;;4.63;2.20;;;17.00;99.90;;;;;;5440937;26;20031;-84
2024/04/08 10:22:47;;;;;;;5.40;2.10;;;16.90;99.90;;;;;;5418052;26;20027;-84
2024/04/08 10:25:35;;;;;;;6.18;2.10;;;16.70;99.90;;;;;;5429941;26;20031;-84
2024/04/08 10:28:03;;;;;;;6.22;1.80;;;16.90;99.90;;;;;;5415782;26;20036;-83
2024/04/08 10:30:32;;;;;;;5.32;2.28;;;17.00;99.90;;;;;;5410481;26;20633;-83
2024/04/08 10:33:01;;;;;;;4.55;1.98;;;17.00;99.90;;;;;;5417375;26;20370;-83
2024/04/08 10:35:29;;;;;;;6.45;2.00;;;17.00;99.90;;;;;;5417279;26;20028;-83
2024/04/08 10:37:57;;;;;;;6.45;2.30;;;17.20;99.90;;;;;;5417333;26;20036;-83
2024/04/08 10:40:25;;;;;;;6.28;1.88;;;17.20;99.90;;;;;;5396185;26;20028;-83
2024/04/08 10:42:53;;;;;;;4.50;1.73;;;17.30;99.90;;;;;;5418871;26;20032;-83
2024/04/08 10:45:21;;;;;;;5.50;1.90;;;17.50;99.90;;;;;;5412229;26;20035;-84
2024/04/08 10:47:55;;;;;;;6.57;1.98;;;17.50;99.90;;;;;;5415956;26;20028;-83
2024/04/08 10:50:24;;;;;;;4.70;2.03;;;17.60;99.90;;;;;;5417693;26;20037;-84
2024/04/08 10:52:52;;;;;;;7.63;2.20;;;17.60;99.90;;;;;;5389088;26;20468;-84
2024/04/08 10:55:21;;;;;;;4.15;1.67;;;17.60;99.90;;;;;;5417468;26;20024;-83
2024/04/08 10:57:49;;;;;;;6.03;1.98;;;17.60;99.90;;;;;;5397247;26;20033;-84
2024/04/08 11:00:17;;;;;;;3.88;1.50;;;17.60;99.90;;;;;;5392297;26;20032;-84
2024/04/08 11:02:45;;;;;;;5.53;1.77;;;17.60;99.90;;;;;;5413165;26;20032;-85
2024/04/08 11:05:14;;;;;;;4.30;1.55;;;17.80;99.90;;;;;;5405231;26;20473;-84
2024/04/08 11:07:42;;;;;;;4.53;1.52;;;18.10;99.90;;;;;;5417356;26;20036;-84
2024/04/08 11:10:15;;;;;;;4.90;1.98;;;18.10;99.90;;;;;;5425111;26;20028;-85
2024/04/08 11:12:44;;;;;;;4.28;1.95;;;18.20;99.90;;;;;;5413417;26;20383;-84
2024/04/08 11:15:13;;;;;;;3.58;1.50;;;18.20;99.90;;;;;;5404431;26;20032;-84
2024/04/08 11:17:41;;;;;;;5.28;1.50;;;18.20;99.90;;;;;;5416487;26;20039;-84
2024/04/08 11:20:16;;;;;;;3.85;1.58;;;18.30;99.90;;;;;;5411469;26;20047;-84
2024/04/08 11:22:44;;;;;;;5.97;1.90;;;18.20;99.90;;;;;;5384678;26;20037;-84
2024/04/08 11:25:15;;;;;;;5.05;1.65;;;18.10;99.90;;;;;;5422562;26;20031;-84
2024/04/08 11:27:45;;;;;;;5.10;1.77;;;18.00;99.90;;;;;;5432433;26;20029;-84
2024/04/08 11:30:17;;;;;;;5.25;1.70;;;18.10;99.90;;;;;;5424217;26;20031;-84
2024/04/08 11:32:45;;;;;;;5.15;1.90;;;18.30;99.90;;;;;;5407068;26;20034;-84
2024/04/08 11:35:13;;;;;;;4.72;1.40;;;18.40;99.90;;;;;;5406188;26;20031;-84
2024/04/08 11:37:41;;;;;;;4.32;1.35;;;18.60;99.90;;;;;;5497403;26;20031;-84
2024/04/08 11:40:09;;;;;;;4.55;1.40;;;18.60;99.90;;;;;;5475737;26;20039;-85
2024/04/08 11:42:37;;;;;;;4.03;1.40;;;18.50;99.90;;;;;;5448882;26;20030;-84
2024/04/08 11:45:06;;;;;;;4.63;1.33;;;18.30;99.90;;;;;;5461643;26;20034;-85
2024/04/08 11:47:36;;;;;;;4.20;1.38;;;18.20;99.90;;;;;;5479626;26;20383;-84
2024/04/08 11:50:04;;;;;;;6.75;1.52;;;18.20;99.90;;;;;;5442294;26;20376;-84
2024/04/08 11:52:36;;;;;;;4.90;1.27;;;18.20;99.90;;;;;;5479835;26;20027;-85
2024/04/08 11:55:05;;;;;;;4.20;1.30;;;18.20;99.90;;;;;;5488390;26;20793;-85
2024/04/08 11:57:33;;;;;;;3.00;1.40;;;18.30;99.90;;;;;;5458388;26;20027;-84
2024/04/08 12:00:03;;;;;;;4.53;1.50;;;18.50;99.90;;;;;;5477697;26;20103;-84
2024/04/08 12:02:31;;;;;;;3.35;1.20;;;18.50;99.90;;;;;;5479643;26;20368;-84
2024/04/08 12:04:59;;;;;;;2.88;1.35;;;18.60;99.90;;;;;;5492610;26;20023;-84
2024/04/08 12:07:26;;;;;;;6.07;1.40;;;18.80;99.90;;;;;;5474595;26;20031;-84
2024/04/08 12:09:54;;;;;;;4.40;1.42;;;19.10;99.90;;;;;;5496273;26;20388;-85
2024/04/08 12:12:22;;;;;;;4.70;1.45;;;19.10;99.90;;;;;;5460918;26;20027;-84
2024/04/08 12:14:50;;;;;;;4.00;1.27;;;19.10;99.90;;;;;;5439229;26;20027;-84
2024/04/08 12:17:18;;;;;;;5.20;1.60;;;19.00;99.90;;;;;;5443347;26;20031;-82
2024/04/08 12:19:48;;;;;;;4.97;1.63;;;18.80;99.90;;;;;;5491872;26;20031;-85
2024/04/08 12:22:17;;;;;;;6.72;1.80;;;18.80;99.90;;;;;;5417455;26;20031;-85
2024/04/08 12:24:45;;;;;;;3.70;1.50;;;18.70;99.90;;;;;;5444624;26;20031;-85
2024/04/08 12:27:14;;;;;;;7.57;1.67;;;18.80;99.90;;;;;;5492542;26;20022;-85
2024/04/08 12:29:42;;;;;;;4.32;2.08;;;18.70;99.90;;;;;;5450164;26;20027;-85
2024/04/08 12:32:10;;;;;;;6.07;1.70;;;18.70;99.90;;;;;;5487397;26;20030;-84
2024/04/08 12:34:38;;;;;;;4.05;1.70;;;18.60;99.90;;;;;;5460250;26;20023;-85
2024/04/08 12:37:06;;;;;;;5.32;2.20;;;18.50;99.90;;;;;;5472265;26;20042;-85
2024/04/08 12:39:34;;;;;;;4.22;1.80;;;18.50;99.90;;;;;;5457606;26;20035;-84
2024/04/08 12:42:02;;;;;;;4.68;2.08;;;18.60;99.90;;;;;;5446368;26;20036;-85
2024/04/08 12:44:30;;;;;;;5.40;2.30;;;18.60;99.90;;;;;;5466567;26;20026;-84
2024/04/08 12:46:58;;;;;;;4.60;2.13;;;18.70;99.90;;;;;;5469057;26;20381;-84
2024/04/08 12:49:26;;;;;;;5.00;2.13;;;18.70;99.90;;;;;;5449819;26;20039;-85
2024/04/08 12:51:54;;;;;;;5.82;2.20;;;18.60;99.90;;;;;;5483055;26;20373;-85